• Join FlightAware (Why Join?)
  • Login
  • US Flag 
03:11PM EDT


 

Airport Tracker/Info


-or-


 

Live Flight TrackerFlight Track Log ✈ CPZ5750 ✈ 01-Mar-2014 ✈ KMSP - CYYC

Flight Track Log - Related Links

Times and Time Zones

All times are in EST time to prevent confusion due to time zone crossing. See the CPZ5750 flight status page for this flight to view local times or setup timezone preferences in your user account.

Time Position Orientation Groundspeed Altitude Reporting Facility
EST Latitude Longitude Course Direction KTS MPH feet Rate Location/Type
12:40PM 44.9000 -93.2333 301° West 149 171 2,300  Level Minneapolis TRACON
12:41PM 44.9281 -93.2667 320° Northwest 153 176 3,300 1,500 Climbing Minneapolis Center
12:42PM 44.9728 -93.3242 318° Northwest 205 236 5,300 2,580 Climbing Minneapolis Center
12:43PM 45.1760 -93.4804 298° West  Level FlightAware Approximate
12:43PM 45.0253 -93.3981 315° West 230 265 8,700  Level Minneapolis Center
12:44PM 45.2213 -93.5985 299° West  Level FlightAware Approximate
12:44PM 45.0739 -93.4661 315° West 244 281 10,800  Level Minneapolis Center
12:45PM 45.2666 -93.7166 299° West  Level FlightAware Approximate
12:45PM 45.1311 -93.5464 315° West 286 329 12,500  Level Minneapolis Center
12:46PM 45.3159 -93.8315 301° West  Level FlightAware Approximate
12:46PM 45.1892 -93.6283 315° West 296 341 15,000  Level Minneapolis Center
12:48PM 45.2489 -93.7139 315° West 305 351 16,800 1,560 Climbing Minneapolis Center
12:49PM 45.3117 -93.8017 315° West 316 364 18,200 1,980 Climbing Minneapolis Center
12:50PM 45.3600 -93.9253 299° West 303 349 20,900 1,920 Climbing Minneapolis Center
12:51PM 45.4000 -94.0300 299° West 301 346 22,200 1,380 Climbing Minneapolis Center
12:52PM 45.4408 -94.1367 299° West 304 350 23,800 1,320 Climbing Minneapolis Center
12:53PM 45.4828 -94.2458 299° West 310 357 25,000 1,200 Climbing Minneapolis Center
12:54PM 45.5281 -94.3656 298° West 318 366 26,300 1,020 Climbing Minneapolis Center
12:55PM 45.5683 -94.4725 298° West 322 371 27,200 900 Climbing Minneapolis Center
12:56PM 45.6183 -94.5839 303° West 330 380 28,200 840 Climbing Minneapolis Center
12:57PM 45.6761 -94.6919 307° West 337 388 29,000 1,080 Climbing Minneapolis Center
12:58PM 45.7425 -94.8208 306° West 340 391 30,500 1,080 Climbing Minneapolis Center
12:59PM 45.7969 -94.9253 307° West 331 381 31,300 780 Climbing Minneapolis Center
01:00PM 45.8497 -95.0306 306° West 330 380 32,200 660 Climbing Minneapolis Center
01:01PM 45.9061 -95.1394 307° West 325 374 32,700 420 Climbing Minneapolis Center
01:02PM 45.9597 -95.2447 306° West 325 374 33,100 480 Climbing Minneapolis Center
01:03PM 46.0131 -95.3519 306° West 327 376 33,700 420 Climbing Minneapolis Center
01:04PM 46.0672 -95.4572 307° West 328 377 34,000 120 Climbing Minneapolis Center
01:05PM 46.1317 -95.5867 306° West 332 382 34,000  Level Minneapolis Center
01:06PM 46.1853 -95.6933 306° West 332 382 34,000  Level Minneapolis Center
01:07PM 46.2406 -95.8031 306° West 334 384 34,000  Level Minneapolis Center
01:08PM 46.2978 -95.9167 306° West 343 395 34,000  Level Minneapolis Center
01:09PM 46.3533 -96.0272 306° West 344 396 34,000  Level Minneapolis Center
01:10PM 46.4081 -96.1414 305° West 345 397 34,000  Level Minneapolis Center
01:11PM 46.4631 -96.2556 305° West 345 397 34,000  Level Minneapolis Center
01:12PM 46.5197 -96.3703 306° West 347 399 34,000  Level Minneapolis Center
01:13PM 46.5881 -96.5111 305° West 353 406 34,000  Level Minneapolis Center
01:14PM 46.6461 -96.6286 306° West 355 409 34,000  Level Minneapolis Center
01:15PM 46.7036 -96.7478 305° West 357 411 34,000  Level Minneapolis Center
01:16PM 46.7583 -96.8717 303° West 360 414 34,000  Level Minneapolis Center
01:17PM 46.7844 -97.0097 285° West 355 409 34,000  Level Minneapolis Center
01:18PM 46.8111 -97.1492 286° West 355 409 34,000  Level Minneapolis Center
01:19PM 46.8383 -97.2872 286° West 354 407 34,000  Level Minneapolis Center
01:20PM 46.8642 -97.4247 285° West 354 407 34,000  Level Minneapolis Center
01:21PM 46.8917 -97.5633 286° West 354 407 34,000  Level Minneapolis Center
01:22PM 46.9236 -97.7286 286° West 354 407 34,000  Level Minneapolis Center
01:23PM 46.9492 -97.8681 285° West 354 407 34,000  Level Minneapolis Center
01:25PM 46.9747 -98.0053 285° West 352 405 34,000  Level Minneapolis Center
01:26PM 47.0011 -98.1444 286° West 352 405 34,000  Level Minneapolis Center
01:27PM 47.0272 -98.2844 285° West 352 405 34,000  Level Minneapolis Center
01:28PM 47.0522 -98.4231 285° West 353 406 34,000  Level Minneapolis Center
01:29PM 47.0764 -98.5628 284° West 353 406 34,000  Level Minneapolis Center
01:30PM 47.1014 -98.7017 285° West 353 406 34,000  Level Minneapolis Center
01:31PM 47.1269 -98.8406 285° West 353 406 34,000  Level Minneapolis Center
01:32PM 47.1558 -99.0072 284° West 353 406 34,000  Level Minneapolis Center
01:33PM 47.1800 -99.1472 284° West 353 406 34,000  Level Minneapolis Center
01:34PM 47.2050 -99.2869 285° West 353 406 34,000  Level Minneapolis Center
01:35PM 47.2308 -99.4397 284° West 353 406 34,000  Level Minneapolis Center
01:36PM 47.2519 -99.5667 284° West 353 406 34,000  Level Minneapolis Center
01:37PM 47.2769 -99.7081 285° West 353 406 34,000  Level Minneapolis Center
01:38PM 47.3008 -99.8481 284° West 353 406 34,000  Level Minneapolis Center
01:39PM 47.3236 -99.9886 283° West 353 406 34,000  Level Minneapolis Center
01:40PM 47.3464 -100.1292 283° West 353 406 34,000  Level Minneapolis Center
01:41PM 47.3747 -100.2978 284° West 353 406 34,000  Level Minneapolis Center
01:42PM 47.3969 -100.4372 283° West 353 406 34,000  Level Minneapolis Center
01:43PM 47.4200 -100.5789 284° West 353 406 34,000  Level Minneapolis Center
01:44PM 47.4483 -100.7219 286° West 357 411 34,000  Level Minneapolis Center
01:45PM 47.4714 -100.8628 284° West 357 411 34,000  Level Minneapolis Center
01:46PM 47.4942 -101.0206 282° West 356 410 34,000  Level Minneapolis Center
01:47PM 47.5156 -101.1628 283° West 356 410 34,000  Level Minneapolis Center
01:48PM 47.5375 -101.3044 283° West 355 409 34,000  Level Minneapolis Center
01:49PM 47.5625 -101.4583 284° West 355 409 34,000  Level Minneapolis Center
01:50PM 47.5792 -101.5886 281° West 355 409 34,000  Level Minneapolis Center
01:51PM 47.5981 -101.7306 281° West 355 409 34,000  Level Minneapolis Center
01:52PM 47.6247 -101.8844 284° West 354 407 34,000  Level Minneapolis Center
01:53PM 47.6461 -102.0436 281° West 355 409 34,000  Level Minneapolis Center
01:54PM 47.6631 -102.1869 280° West 355 409 34,000  Level Minneapolis Center
01:55PM 47.6864 -102.3289 284° West 354 407 34,000  Level Minneapolis Center
01:56PM 47.7053 -102.4700 281° West 354 407 34,000  Level Minneapolis Center
01:57PM 47.7264 -102.6125 282° West 354 407 34,000  Level Minneapolis Center
01:58PM 47.7453 -102.7547 281° West 353 406 34,000  Level Minneapolis Center
01:59PM 47.7644 -102.8961 281° West 352 405 34,000  Level Minneapolis Center
02:00PM 47.7828 -103.0400 281° West 354 407 34,000  Level Minneapolis Center
02:01PM 47.8089 -103.2161 283° West 360 414 34,000  Level Minneapolis Center
02:02PM 47.8258 -103.3594 280° West 360 414 34,000  Level Minneapolis Center
02:03PM 47.8450 -103.5031 281° West 359 413 34,000  Level Minneapolis Center
02:05PM 47.8681 -103.6725 282° West 358 412 34,000  Level Salt Lake Center
02:06PM 47.8867 -103.8153 281° West 358 412 34,000  Level Salt Lake Center
02:07PM 47.9056 -103.9594 281° West 359 413 34,000  Level Salt Lake Center
02:08PM 47.9244 -104.1039 281° West 360 414 34,000  Level Salt Lake Center
02:09PM 47.9436 -104.2489 281° West 360 414 34,000  Level Salt Lake Center
02:10PM 47.9608 -104.3969 280° West 361 415 34,000  Level Salt Lake Center
02:11PM 47.9831 -104.5728 281° West 361 415 34,000  Level Salt Lake Center
02:12PM 47.9997 -104.7197 280° West 362 417 34,000  Level Salt Lake Center
02:13PM 48.0197 -104.8642 282° West 359 413 34,000  Level Salt Lake Center
02:14PM 48.0347 -105.0111 279° West 359 413 34,000  Level Salt Lake Center
02:15PM 48.0528 -105.1583 280° West 360 414 34,000  Level Salt Lake Center
02:16PM 48.0694 -105.3053 280° West 360 414 34,000  Level Salt Lake Center
02:17PM 48.0861 -105.4519 280° West 360 414 34,000  Level Salt Lake Center
02:18PM 48.1050 -105.6283 279° West 360 414 34,000  Level Salt Lake Center
02:19PM 48.1219 -105.7756 280° West 360 414 34,000  Level Salt Lake Center
02:20PM 48.1378 -105.9236 279° West 361 415 34,000  Level Salt Lake Center
02:21PM 48.1547 -106.0711 280° West 361 415 34,000  Level Salt Lake Center
02:22PM 48.1714 -106.2186 280° West 361 415 34,000  Level Salt Lake Center
02:23PM 48.1869 -106.3661 279° West 360 414 34,000  Level Salt Lake Center
02:24PM 48.2025 -106.5139 279° West 360 414 34,000  Level Salt Lake Center
02:25PM 48.2219 -106.6611 281° West 360 414 34,000  Level Salt Lake Center
02:26PM 48.2914 -106.8186 304° West 371 427 34,000  Level Salt Lake Center
02:27PM 48.3450 -106.9506 301° West 372 428 34,000  Level Salt Lake Center
02:28PM 48.4003 -107.0825 302° West 372 428 34,000  Level Salt Lake Center
02:29PM 48.4525 -107.2156 301° West 371 427 34,000  Level Salt Lake Center
02:30PM 48.5072 -107.3483 302° West 373 429 34,000  Level Salt Lake Center
02:31PM 48.5592 -107.4825 300° West 372 428 34,000  Level Salt Lake Center
02:32PM 48.6119 -107.6167 301° West 373 429 34,000  Level Salt Lake Center
02:33PM 48.6661 -107.7503 302° West 373 429 34,000  Level Salt Lake Center
02:34PM 48.7242 -107.8981 301° West 374 430 34,000  Level Salt Lake Center
02:35PM 48.7775 -108.0358 300° West 378 435 34,000  Level Salt Lake Center
02:36PM 48.8000 -108.1833 283° West 380 437 34,000  Level Edmonton Center
02:37PM 48.8828 -108.3097 315° West 379 436 34,000  Level Salt Lake Center
02:38PM 48.9475 -108.4758 301° West 381 438 34,000  Level Salt Lake Center
02:39PM 48.9992 -108.6150 300° West 380 437 34,000  Level Salt Lake Center
02:40PM 49.0167 -108.7333 283° West 370 426 34,000  Level Edmonton Center
02:41PM 49.0833 -108.8667 307° West 380 437 34,000  Level Edmonton Center
02:42PM 49.1167 -109.0333 287° West 380 437 34,000  Level Edmonton Center
02:43PM 49.1833 -109.1667 307° West 380 437 34,000  Level Edmonton Center
02:44PM 49.2333 -109.3000 300° West 380 437 34,000  Level Edmonton Center
02:45PM 49.2667 -109.4500 289° West 380 437 34,000  Level Edmonton Center
02:46PM 49.3333 -109.5833 308° West 380 437 34,000  Level Edmonton Center
02:47PM 49.3833 -109.7167 300° West 380 437 34,000  Level Edmonton Center
02:48PM 49.4333 -109.8833 295° West 380 437 34,000  Level Edmonton Center
02:49PM 49.4833 -110.0167 300° West 380 437 34,000  Level Edmonton Center
02:50PM 49.5500 -110.1500 308° West 380 437 34,000  Level Edmonton Center
02:51PM 49.5833 -110.3000 289° West 380 437 34,000  Level Edmonton Center
02:52PM 49.6500 -110.4500 305° West 380 437 34,000  Level Edmonton Center
02:53PM 49.7000 -110.5833 300° West 380 437 34,000  Level Edmonton Center
02:54PM 49.7333 -110.7333 289° West 380 437 34,000  Level Edmonton Center
02:55PM 49.8000 -110.8833 305° West 380 437 34,000  Level Edmonton Center
02:56PM 49.8333 -111.0333 289° West 380 437 34,000  Level Edmonton Center
02:57PM 49.9000 -111.1667 308° West 380 437 34,000  Level Edmonton Center
02:58PM 49.9333 -111.3000 291° West 380 437 34,000  Level Edmonton Center
02:59PM 50.0000 -111.4667 302° West 380 437 34,000  Level Edmonton Center
03:00PM 50.0333 -111.6000 291° West 380 437 34,000  Level Edmonton Center
03:01PM 50.1000 -111.7500 305° West 380 437 34,000  Level Edmonton Center
03:02PM 50.1500 -111.9167 295° West 390 449 34,000  Level Edmonton Center
03:03PM 50.2000 -112.0500 300° West 390 449 34,000  Level Edmonton Center
03:04PM 50.2500 -112.2000 298° West 390 449 34,000  Level Edmonton Center
03:05PM 50.3167 -112.3333 308° West 390 449 34,000  Level Edmonton Center
03:06PM 50.3667 -112.5000 295° West 390 449 34,000 -540 Level Edmonton Center
03:07PM 50.4167 -112.6500 298° West 390 449 33,000 -1,320 Descending Edmonton Center
03:08PM 50.4667 -112.7833 301° West 380 437 31,400 -2,040 Descending Edmonton Center
03:09PM 50.5167 -112.9333 298° West 370 426 29,000 -2,400 Descending Edmonton Center
03:10PM 50.5500 -113.0667 292° West 350 403 26,600 -2,340 Descending Edmonton Center
03:11PM 50.6000 -113.1833 304° West 330 380 24,400 -2,280 Descending Edmonton Center
03:12PM 50.6500 -113.3333 298° West 320 368 22,100 -2,160 Descending Edmonton Center
03:13PM 50.7000 -113.4500 304° West 320 368 20,100 -1,980 Descending Edmonton Center
03:14PM 50.7667 -113.4833 342° North 330 380 18,200 -1,860 Descending Edmonton Center
03:15PM 50.8500 -113.5500 333° Northwest 320 368 16,400 -1,860 Descending Edmonton Center
03:16PM 50.9333 -113.6167 333° Northwest 320 368 14,500 -2,040 Descending Edmonton Center
03:17PM 51.0167 -113.7000 328° Northwest 320 368 12,400 -1,860 Descending Edmonton Center
03:18PM 51.0833 -113.7667 328° Northwest 300 345 10,800 -1,740 Descending Edmonton Center
03:19PM 51.1667 -113.8000 346° North 280 322 9,000 -1,620 Descending Edmonton Center
03:20PM 51.2333 -113.8833 322° Northwest 270 311 7,600 -1,020 Descending Edmonton Center
03:21PM 51.2833 -113.9333 328° Northwest 200 230 7,000 -1,020 Descending Edmonton Center
03:22PM 51.2833 -114.0167 270° West 180 207 5,600 -780 Descending Edmonton Center
03:23PM 51.2333 -114.0333 192° South 160 184 5,500 -60 Descending Edmonton Center
03:24PM 51.2000 -114.0667 212° Southwest 160 184 5,500 -360 Level Edmonton Center
03:25PM 51.1500 -114.0500 168° South 160 184 4,800 -780 Descending Edmonton Center
03:26PM 51.1167 -114.0333 163° South 120 138 4,000 -660 Descending Edmonton Center
03:27PM 51.0833 -114.0333 180° South 80 92 3,500 -240 Descending Edmonton Center
03:28PM 51.0833 -114.0333 180° South 10 12 3,600  Climbing Edmonton Center
03:29PM 51.0833 -114.0333 180° South 20 23 3,600  Level Edmonton Center
03:31PM 51.0833 -114.0333 279° West 20 23 3,600  Level Edmonton Center
03:32PM 51.1000 -114.0333 360° North 10 12 3,600  Level Edmonton Center
03:34PM 51.1000 -114.0333 270° West 10 12 3,600  Level Edmonton Center